sensor_id;sensor_type;location;lat;lon;timestamp;P1;durP1;ratioP1;P2;durP2;ratioP2
5026;SDS011;2532;52.480;13.354;2022-12-07T00:01:40;14.00;;;8.00;;
5026;SDS011;2532;52.480;13.354;2022-12-07T00:04:10;15.13;;;8.33;;
5026;SDS011;2532;52.480;13.354;2022-12-07T00:06:39;14.37;;;8.47;;
5026;SDS011;2532;52.480;13.354;2022-12-07T00:09:07;13.13;;;8.23;;
5026;SDS011;2532;52.480;13.354;2022-12-07T00:11:37;13.53;;;8.17;;
5026;SDS011;2532;52.480;13.354;2022-12-07T00:14:04;12.97;;;7.57;;
5026;SDS011;2532;52.480;13.354;2022-12-07T00:16:33;14.17;;;8.10;;
5026;SDS011;2532;52.480;13.354;2022-12-07T00:19:04;14.87;;;9.33;;
5026;SDS011;2532;52.480;13.354;2022-12-07T00:21:32;11.87;;;7.20;;
5026;SDS011;2532;52.480;13.354;2022-12-07T00:24:00;14.00;;;8.30;;
5026;SDS011;2532;52.480;13.354;2022-12-07T00:26:30;14.50;;;7.90;;
5026;SDS011;2532;52.480;13.354;2022-12-07T00:28:58;19.47;;;8.50;;
5026;SDS011;2532;52.480;13.354;2022-12-07T00:31:27;14.30;;;7.37;;
5026;SDS011;2532;52.480;13.354;2022-12-07T00:33:56;12.83;;;7.60;;
5026;SDS011;2532;52.480;13.354;2022-12-07T00:36:27;12.57;;;7.97;;
5026;SDS011;2532;52.480;13.354;2022-12-07T00:38:54;14.50;;;7.23;;
5026;SDS011;2532;52.480;13.354;2022-12-07T00:41:24;11.40;;;7.50;;
5026;SDS011;2532;52.480;13.354;2022-12-07T00:43:52;9.23;;;6.60;;
5026;SDS011;2532;52.480;13.354;2022-12-07T00:46:20;12.30;;;8.00;;
5026;SDS011;2532;52.480;13.354;2022-12-07T00:48:47;10.77;;;7.37;;
5026;SDS011;2532;52.480;13.354;2022-12-07T00:51:15;10.87;;;7.00;;
5026;SDS011;2532;52.480;13.354;2022-12-07T00:53:46;10.13;;;6.90;;
5026;SDS011;2532;52.480;13.354;2022-12-07T00:56:14;11.43;;;6.83;;
5026;SDS011;2532;52.480;13.354;2022-12-07T00:58:42;10.27;;;6.60;;
5026;SDS011;2532;52.480;13.354;2022-12-07T01:01:12;12.63;;;7.03;;
5026;SDS011;2532;52.480;13.354;2022-12-07T01:03:39;9.30;;;6.20;;
5026;SDS011;2532;52.480;13.354;2022-12-07T01:06:06;11.43;;;6.77;;
5026;SDS011;2532;52.480;13.354;2022-12-07T01:08:33;10.03;;;5.83;;
5026;SDS011;2532;52.480;13.354;2022-12-07T01:11:03;9.53;;;7.10;;
5026;SDS011;2532;52.480;13.354;2022-12-07T01:13:31;11.80;;;7.67;;
5026;SDS011;2532;52.480;13.354;2022-12-07T01:16:00;10.03;;;6.77;;
5026;SDS011;2532;52.480;13.354;2022-12-07T01:18:30;12.47;;;6.80;;
5026;SDS011;2532;52.480;13.354;2022-12-07T01:20:59;10.13;;;6.30;;
5026;SDS011;2532;52.480;13.354;2022-12-07T01:23:30;12.50;;;7.33;;
5026;SDS011;2532;52.480;13.354;2022-12-07T01:25:59;10.37;;;7.03;;
5026;SDS011;2532;52.480;13.354;2022-12-07T01:28:29;9.80;;;7.00;;
5026;SDS011;2532;52.480;13.354;2022-12-07T01:30:57;11.30;;;7.20;;
5026;SDS011;2532;52.480;13.354;2022-12-07T01:33:26;9.83;;;6.80;;
5026;SDS011;2532;52.480;13.354;2022-12-07T01:35:54;7.27;;;5.50;;
5026;SDS011;2532;52.480;13.354;2022-12-07T01:38:26;12.40;;;7.03;;
5026;SDS011;2532;52.480;13.354;2022-12-07T01:40:55;8.50;;;6.07;;
5026;SDS011;2532;52.480;13.354;2022-12-07T01:43:25;10.27;;;6.47;;
5026;SDS011;2532;52.480;13.354;2022-12-07T01:45:55;8.77;;;5.93;;
5026;SDS011;2532;52.480;13.354;2022-12-07T01:48:24;7.53;;;5.63;;
5026;SDS011;2532;52.480;13.354;2022-12-07T01:50:56;9.30;;;6.30;;
5026;SDS011;2532;52.480;13.354;2022-12-07T01:53:28;8.23;;;5.77;;
5026;SDS011;2532;52.480;13.354;2022-12-07T01:55:56;13.10;;;6.80;;
5026;SDS011;2532;52.480;13.354;2022-12-07T01:58:26;8.87;;;6.00;;
5026;SDS011;2532;52.480;13.354;2022-12-07T02:00:54;10.17;;;6.17;;
5026;SDS011;2532;52.480;13.354;2022-12-07T02:03:24;11.47;;;5.50;;
5026;SDS011;2532;52.480;13.354;2022-12-07T02:05:57;10.50;;;6.30;;
5026;SDS011;2532;52.480;13.354;2022-12-07T02:08:26;14.37;;;7.23;;
5026;SDS011;2532;52.480;13.354;2022-12-07T02:10:53;8.60;;;5.70;;
5026;SDS011;2532;52.480;13.354;2022-12-07T02:13:21;9.00;;;6.23;;
5026;SDS011;2532;52.480;13.354;2022-12-07T02:15:58;9.43;;;6.47;;
5026;SDS011;2532;52.480;13.354;2022-12-07T02:18:35;9.17;;;5.53;;
5026;SDS011;2532;52.480;13.354;2022-12-07T02:21:11;8.50;;;5.60;;
5026;SDS011;2532;52.480;13.354;2022-12-07T02:23:48;10.23;;;6.20;;
5026;SDS011;2532;52.480;13.354;2022-12-07T02:26:54;7.33;;;5.40;;
5026;SDS011;2532;52.480;13.354;2022-12-07T02:29:46;7.93;;;5.80;;
5026;SDS011;2532;52.480;13.354;2022-12-07T02:32:16;9.60;;;6.47;;
5026;SDS011;2532;52.480;13.354;2022-12-07T02:34:53;9.23;;;6.40;;
5026;SDS011;2532;52.480;13.354;2022-12-07T02:37:32;8.77;;;6.20;;
5026;SDS011;2532;52.480;13.354;2022-12-07T02:40:06;12.50;;;6.23;;
5026;SDS011;2532;52.480;13.354;2022-12-07T02:42:40;9.83;;;6.33;;
5026;SDS011;2532;52.480;13.354;2022-12-07T02:45:13;11.17;;;7.00;;
5026;SDS011;2532;52.480;13.354;2022-12-07T02:47:44;9.27;;;6.17;;
5026;SDS011;2532;52.480;13.354;2022-12-07T02:50:14;8.70;;;6.03;;
5026;SDS011;2532;52.480;13.354;2022-12-07T02:52:45;10.23;;;5.97;;
5026;SDS011;2532;52.480;13.354;2022-12-07T02:55:12;9.83;;;5.80;;
5026;SDS011;2532;52.480;13.354;2022-12-07T02:57:47;9.67;;;6.20;;
5026;SDS011;2532;52.480;13.354;2022-12-07T03:00:23;10.17;;;6.63;;
5026;SDS011;2532;52.480;13.354;2022-12-07T03:02:54;9.10;;;6.67;;
5026;SDS011;2532;52.480;13.354;2022-12-07T03:05:31;12.70;;;7.33;;
5026;SDS011;2532;52.480;13.354;2022-12-07T03:08:13;9.83;;;6.77;;
5026;SDS011;2532;52.480;13.354;2022-12-07T03:10:49;10.37;;;6.53;;
5026;SDS011;2532;52.480;13.354;2022-12-07T03:13:22;9.60;;;6.23;;
5026;SDS011;2532;52.480;13.354;2022-12-07T03:15:57;10.27;;;6.90;;
5026;SDS011;2532;52.480;13.354;2022-12-07T03:18:29;10.30;;;7.00;;
5026;SDS011;2532;52.480;13.354;2022-12-07T03:21:01;10.47;;;6.90;;
5026;SDS011;2532;52.480;13.354;2022-12-07T03:23:32;15.70;;;7.83;;
5026;SDS011;2532;52.480;13.354;2022-12-07T03:26:03;11.87;;;7.93;;
5026;SDS011;2532;52.480;13.354;2022-12-07T03:28:36;10.60;;;7.30;;
5026;SDS011;2532;52.480;13.354;2022-12-07T03:31:10;13.53;;;7.77;;
5026;SDS011;2532;52.480;13.354;2022-12-07T03:33:43;10.17;;;7.03;;
5026;SDS011;2532;52.480;13.354;2022-12-07T03:36:19;10.63;;;7.43;;
5026;SDS011;2532;52.480;13.354;2022-12-07T03:38:53;10.83;;;7.40;;
5026;SDS011;2532;52.480;13.354;2022-12-07T03:41:28;10.13;;;7.30;;
5026;SDS011;2532;52.480;13.354;2022-12-07T03:43:57;11.47;;;7.03;;
5026;SDS011;2532;52.480;13.354;2022-12-07T03:46:29;11.53;;;8.20;;
5026;SDS011;2532;52.480;13.354;2022-12-07T03:49:06;12.30;;;8.17;;
5026;SDS011;2532;52.480;13.354;2022-12-07T03:51:38;14.27;;;9.10;;
5026;SDS011;2532;52.480;13.354;2022-12-07T03:54:13;11.00;;;7.20;;
5026;SDS011;2532;52.480;13.354;2022-12-07T03:56:46;13.30;;;9.00;;
5026;SDS011;2532;52.480;13.354;2022-12-07T03:59:14;12.83;;;8.20;;
5026;SDS011;2532;52.480;13.354;2022-12-07T04:01:43;14.77;;;8.33;;
5026;SDS011;2532;52.480;13.354;2022-12-07T04:04:11;19.80;;;9.27;;
5026;SDS011;2532;52.480;13.354;2022-12-07T04:06:40;15.20;;;8.90;;
5026;SDS011;2532;52.480;13.354;2022-12-07T04:09:07;14.73;;;8.13;;
5026;SDS011;2532;52.480;13.354;2022-12-07T04:11:34;15.63;;;10.00;;
5026;SDS011;2532;52.480;13.354;2022-12-07T04:14:01;15.47;;;8.67;;
5026;SDS011;2532;52.480;13.354;2022-12-07T04:16:48;13.70;;;8.90;;
5026;SDS011;2532;52.480;13.354;2022-12-07T04:19:22;18.27;;;8.93;;
5026;SDS011;2532;52.480;13.354;2022-12-07T04:21:51;12.57;;;8.03;;
5026;SDS011;2532;52.480;13.354;2022-12-07T04:24:17;17.43;;;9.70;;
5026;SDS011;2532;52.480;13.354;2022-12-07T04:26:45;17.93;;;9.90;;
5026;SDS011;2532;52.480;13.354;2022-12-07T04:29:12;18.97;;;11.03;;
5026;SDS011;2532;52.480;13.354;2022-12-07T04:31:40;20.33;;;10.77;;
5026;SDS011;2532;52.480;13.354;2022-12-07T04:34:09;18.03;;;9.63;;
5026;SDS011;2532;52.480;13.354;2022-12-07T04:36:36;21.20;;;10.10;;
5026;SDS011;2532;52.480;13.354;2022-12-07T04:39:04;21.87;;;10.73;;
5026;SDS011;2532;52.480;13.354;2022-12-07T04:41:32;19.87;;;10.03;;
5026;SDS011;2532;52.480;13.354;2022-12-07T04:43:59;25.33;;;11.83;;
5026;SDS011;2532;52.480;13.354;2022-12-07T04:46:28;20.30;;;11.57;;
5026;SDS011;2532;52.480;13.354;2022-12-07T04:48:57;20.60;;;11.30;;
5026;SDS011;2532;52.480;13.354;2022-12-07T04:51:27;21.03;;;10.73;;
5026;SDS011;2532;52.480;13.354;2022-12-07T04:53:55;33.13;;;16.10;;
5026;SDS011;2532;52.480;13.354;2022-12-07T04:56:23;36.53;;;19.73;;
5026;SDS011;2532;52.480;13.354;2022-12-07T04:58:51;30.97;;;15.13;;
5026;SDS011;2532;52.480;13.354;2022-12-07T05:01:19;28.73;;;15.80;;
5026;SDS011;2532;52.480;13.354;2022-12-07T05:03:47;21.03;;;13.07;;
5026;SDS011;2532;52.480;13.354;2022-12-07T05:06:14;29.30;;;13.70;;
5026;SDS011;2532;52.480;13.354;2022-12-07T05:08:43;24.27;;;13.07;;
5026;SDS011;2532;52.480;13.354;2022-12-07T05:11:10;22.27;;;12.97;;
5026;SDS011;2532;52.480;13.354;2022-12-07T05:13:59;24.10;;;12.10;;
5026;SDS011;2532;52.480;13.354;2022-12-07T05:16:26;27.37;;;12.97;;
5026;SDS011;2532;52.480;13.354;2022-12-07T05:18:53;22.63;;;12.73;;
5026;SDS011;2532;52.480;13.354;2022-12-07T05:21:21;24.40;;;12.57;;
5026;SDS011;2532;52.480;13.354;2022-12-07T05:23:50;29.10;;;15.03;;
5026;SDS011;2532;52.480;13.354;2022-12-07T05:26:18;26.00;;;13.30;;
5026;SDS011;2532;52.480;13.354;2022-12-07T05:28:45;25.90;;;13.30;;
5026;SDS011;2532;52.480;13.354;2022-12-07T05:31:15;22.87;;;12.60;;
5026;SDS011;2532;52.480;13.354;2022-12-07T05:33:42;25.80;;;13.50;;
5026;SDS011;2532;52.480;13.354;2022-12-07T05:36:09;28.30;;;13.40;;
5026;SDS011;2532;52.480;13.354;2022-12-07T05:38:36;23.70;;;12.60;;
5026;SDS011;2532;52.480;13.354;2022-12-07T05:41:05;24.17;;;13.70;;
5026;SDS011;2532;52.480;13.354;2022-12-07T05:43:53;27.90;;;13.90;;
5026;SDS011;2532;52.480;13.354;2022-12-07T05:46:20;26.40;;;13.93;;
5026;SDS011;2532;52.480;13.354;2022-12-07T05:48:47;31.60;;;15.57;;
5026;SDS011;2532;52.480;13.354;2022-12-07T05:51:14;30.30;;;14.37;;
5026;SDS011;2532;52.480;13.354;2022-12-07T05:53:41;30.17;;;15.40;;
5026;SDS011;2532;52.480;13.354;2022-12-07T05:56:10;27.63;;;15.20;;
5026;SDS011;2532;52.480;13.354;2022-12-07T05:58:37;30.40;;;15.03;;
5026;SDS011;2532;52.480;13.354;2022-12-07T06:01:21;30.40;;;14.67;;
5026;SDS011;2532;52.480;13.354;2022-12-07T06:03:48;31.03;;;16.50;;
5026;SDS011;2532;52.480;13.354;2022-12-07T06:06:15;28.23;;;14.00;;
5026;SDS011;2532;52.480;13.354;2022-12-07T06:08:42;41.33;;;15.60;;
5026;SDS011;2532;52.480;13.354;2022-12-07T06:11:10;35.00;;;15.43;;
5026;SDS011;2532;52.480;13.354;2022-12-07T06:13:54;29.17;;;15.10;;
5026;SDS011;2532;52.480;13.354;2022-12-07T06:16:21;38.03;;;15.53;;
5026;SDS011;2532;52.480;13.354;2022-12-07T06:18:48;31.60;;;15.80;;
5026;SDS011;2532;52.480;13.354;2022-12-07T06:21:15;32.83;;;15.33;;
5026;SDS011;2532;52.480;13.354;2022-12-07T06:23:42;30.33;;;15.87;;
5026;SDS011;2532;52.480;13.354;2022-12-07T06:26:10;32.83;;;16.43;;
5026;SDS011;2532;52.480;13.354;2022-12-07T06:28:37;32.87;;;14.60;;
5026;SDS011;2532;52.480;13.354;2022-12-07T06:31:05;32.53;;;15.40;;
5026;SDS011;2532;52.480;13.354;2022-12-07T06:33:32;31.27;;;15.63;;
5026;SDS011;2532;52.480;13.354;2022-12-07T06:35:59;32.17;;;15.03;;
5026;SDS011;2532;52.480;13.354;2022-12-07T06:38:26;32.60;;;15.97;;
5026;SDS011;2532;52.480;13.354;2022-12-07T06:40:53;25.53;;;13.57;;
5026;SDS011;2532;52.480;13.354;2022-12-07T06:43:21;27.13;;;14.60;;
5026;SDS011;2532;52.480;13.354;2022-12-07T06:45:48;33.00;;;16.43;;
5026;SDS011;2532;52.480;13.354;2022-12-07T06:48:15;33.53;;;16.37;;
5026;SDS011;2532;52.480;13.354;2022-12-07T06:50:44;26.80;;;15.40;;
5026;SDS011;2532;52.480;13.354;2022-12-07T06:53:11;31.40;;;16.10;;
5026;SDS011;2532;52.480;13.354;2022-12-07T06:55:38;34.80;;;16.93;;
5026;SDS011;2532;52.480;13.354;2022-12-07T06:58:05;29.80;;;16.07;;
5026;SDS011;2532;52.480;13.354;2022-12-07T07:00:33;35.37;;;17.87;;
5026;SDS011;2532;52.480;13.354;2022-12-07T07:03:00;30.03;;;15.47;;
5026;SDS011;2532;52.480;13.354;2022-12-07T07:05:27;30.87;;;16.43;;
5026;SDS011;2532;52.480;13.354;2022-12-07T07:07:54;29.37;;;16.90;;
5026;SDS011;2532;52.480;13.354;2022-12-07T07:10:21;31.40;;;17.63;;
5026;SDS011;2532;52.480;13.354;2022-12-07T07:12:51;28.73;;;15.50;;
5026;SDS011;2532;52.480;13.354;2022-12-07T07:15:18;31.27;;;16.63;;
5026;SDS011;2532;52.480;13.354;2022-12-07T07:17:46;29.43;;;15.73;;
5026;SDS011;2532;52.480;13.354;2022-12-07T07:20:13;26.53;;;14.60;;
5026;SDS011;2532;52.480;13.354;2022-12-07T07:22:40;30.23;;;15.50;;
5026;SDS011;2532;52.480;13.354;2022-12-07T07:25:07;31.77;;;16.00;;
5026;SDS011;2532;52.480;13.354;2022-12-07T07:27:34;31.57;;;15.30;;
5026;SDS011;2532;52.480;13.354;2022-12-07T07:30:01;29.53;;;16.17;;
5026;SDS011;2532;52.480;13.354;2022-12-07T07:32:28;26.73;;;14.50;;
5026;SDS011;2532;52.480;13.354;2022-12-07T07:34:56;24.70;;;14.30;;
5026;SDS011;2532;52.480;13.354;2022-12-07T07:37:23;29.10;;;12.93;;
5026;SDS011;2532;52.480;13.354;2022-12-07T07:39:51;27.20;;;13.50;;
5026;SDS011;2532;52.480;13.354;2022-12-07T07:42:18;23.40;;;13.60;;
5026;SDS011;2532;52.480;13.354;2022-12-07T07:44:45;22.73;;;12.57;;
5026;SDS011;2532;52.480;13.354;2022-12-07T07:47:12;26.70;;;13.13;;
5026;SDS011;2532;52.480;13.354;2022-12-07T07:49:39;23.00;;;13.27;;
5026;SDS011;2532;52.480;13.354;2022-12-07T07:52:07;23.60;;;12.73;;
5026;SDS011;2532;52.480;13.354;2022-12-07T07:54:34;22.93;;;13.47;;
5026;SDS011;2532;52.480;13.354;2022-12-07T07:57:01;26.93;;;12.37;;
5026;SDS011;2532;52.480;13.354;2022-12-07T07:59:27;22.50;;;12.37;;
5026;SDS011;2532;52.480;13.354;2022-12-07T08:01:54;20.27;;;10.60;;
5026;SDS011;2532;52.480;13.354;2022-12-07T08:04:21;17.57;;;9.60;;
5026;SDS011;2532;52.480;13.354;2022-12-07T08:06:48;24.40;;;12.47;;
5026;SDS011;2532;52.480;13.354;2022-12-07T08:09:16;17.70;;;10.40;;
5026;SDS011;2532;52.480;13.354;2022-12-07T08:11:43;14.73;;;8.80;;
5026;SDS011;2532;52.480;13.354;2022-12-07T08:14:11;16.80;;;9.27;;
5026;SDS011;2532;52.480;13.354;2022-12-07T08:16:38;15.20;;;10.17;;
5026;SDS011;2532;52.480;13.354;2022-12-07T08:19:06;18.80;;;8.70;;
5026;SDS011;2532;52.480;13.354;2022-12-07T08:21:33;13.40;;;7.83;;
5026;SDS011;2532;52.480;13.354;2022-12-07T08:24:00;10.93;;;7.40;;
5026;SDS011;2532;52.480;13.354;2022-12-07T08:26:29;12.20;;;7.23;;
5026;SDS011;2532;52.480;13.354;2022-12-07T08:28:56;15.70;;;7.73;;
5026;SDS011;2532;52.480;13.354;2022-12-07T08:31:23;11.87;;;7.53;;
5026;SDS011;2532;52.480;13.354;2022-12-07T08:33:49;12.73;;;7.40;;
5026;SDS011;2532;52.480;13.354;2022-12-07T08:36:17;9.67;;;6.03;;
5026;SDS011;2532;52.480;13.354;2022-12-07T08:38:44;8.23;;;5.40;;
5026;SDS011;2532;52.480;13.354;2022-12-07T08:41:11;6.20;;;4.23;;
5026;SDS011;2532;52.480;13.354;2022-12-07T08:43:39;4.90;;;4.23;;
5026;SDS011;2532;52.480;13.354;2022-12-07T08:46:08;5.23;;;4.20;;
5026;SDS011;2532;52.480;13.354;2022-12-07T08:48:38;8.63;;;4.10;;
5026;SDS011;2532;52.480;13.354;2022-12-07T08:51:09;5.40;;;4.13;;
5026;SDS011;2532;52.480;13.354;2022-12-07T08:53:40;4.20;;;3.57;;
5026;SDS011;2532;52.480;13.354;2022-12-07T08:56:08;4.00;;;3.30;;
5026;SDS011;2532;52.480;13.354;2022-12-07T08:58:36;4.90;;;4.00;;
5026;SDS011;2532;52.480;13.354;2022-12-07T09:01:06;4.63;;;3.93;;
5026;SDS011;2532;52.480;13.354;2022-12-07T09:03:33;4.33;;;3.80;;
5026;SDS011;2532;52.480;13.354;2022-12-07T09:06:00;5.33;;;3.83;;
5026;SDS011;2532;52.480;13.354;2022-12-07T09:08:28;6.27;;;3.70;;
5026;SDS011;2532;52.480;13.354;2022-12-07T09:10:59;4.40;;;3.90;;
5026;SDS011;2532;52.480;13.354;2022-12-07T09:13:25;3.90;;;3.40;;
5026;SDS011;2532;52.480;13.354;2022-12-07T09:15:52;4.60;;;3.60;;
5026;SDS011;2532;52.480;13.354;2022-12-07T09:18:20;5.47;;;3.80;;
5026;SDS011;2532;52.480;13.354;2022-12-07T09:20:49;4.93;;;3.93;;
5026;SDS011;2532;52.480;13.354;2022-12-07T09:23:16;4.37;;;3.77;;
5026;SDS011;2532;52.480;13.354;2022-12-07T09:25:43;6.30;;;4.10;;
5026;SDS011;2532;52.480;13.354;2022-12-07T09:28:12;5.40;;;3.80;;
5026;SDS011;2532;52.480;13.354;2022-12-07T09:30:44;4.20;;;3.47;;
5026;SDS011;2532;52.480;13.354;2022-12-07T09:33:11;4.87;;;3.87;;
5026;SDS011;2532;52.480;13.354;2022-12-07T09:35:44;7.37;;;4.00;;
5026;SDS011;2532;52.480;13.354;2022-12-07T09:38:12;3.67;;;3.33;;
5026;SDS011;2532;52.480;13.354;2022-12-07T09:40:39;3.57;;;3.10;;
5026;SDS011;2532;52.480;13.354;2022-12-07T09:43:11;5.27;;;4.10;;
5026;SDS011;2532;52.480;13.354;2022-12-07T09:45:40;8.40;;;4.20;;
5026;SDS011;2532;52.480;13.354;2022-12-07T09:48:09;4.00;;;3.60;;
5026;SDS011;2532;52.480;13.354;2022-12-07T09:50:46;4.50;;;3.33;;
5026;SDS011;2532;52.480;13.354;2022-12-07T09:53:15;5.40;;;3.53;;
5026;SDS011;2532;52.480;13.354;2022-12-07T09:55:46;8.73;;;3.90;;
5026;SDS011;2532;52.480;13.354;2022-12-07T09:58:17;6.80;;;3.67;;
5026;SDS011;2532;52.480;13.354;2022-12-07T10:00:46;4.10;;;3.70;;
5026;SDS011;2532;52.480;13.354;2022-12-07T10:03:14;6.50;;;3.90;;
5026;SDS011;2532;52.480;13.354;2022-12-07T10:05:42;4.77;;;4.00;;
5026;SDS011;2532;52.480;13.354;2022-12-07T10:08:13;4.30;;;3.80;;
5026;SDS011;2532;52.480;13.354;2022-12-07T10:10:41;4.67;;;3.83;;
5026;SDS011;2532;52.480;13.354;2022-12-07T10:13:08;6.10;;;4.60;;
5026;SDS011;2532;52.480;13.354;2022-12-07T10:15:43;5.40;;;3.60;;
5026;SDS011;2532;52.480;13.354;2022-12-07T10:18:20;6.87;;;5.00;;
5026;SDS011;2532;52.480;13.354;2022-12-07T10:20:59;5.73;;;4.00;;
5026;SDS011;2532;52.480;13.354;2022-12-07T10:23:33;6.70;;;4.30;;
5026;SDS011;2532;52.480;13.354;2022-12-07T10:26:10;13.00;;;4.57;;
5026;SDS011;2532;52.480;13.354;2022-12-07T10:28:47;5.80;;;3.77;;
5026;SDS011;2532;52.480;13.354;2022-12-07T10:31:15;7.77;;;5.03;;
5026;SDS011;2532;52.480;13.354;2022-12-07T10:33:48;4.43;;;3.90;;
5026;SDS011;2532;52.480;13.354;2022-12-07T10:36:18;8.47;;;3.70;;
5026;SDS011;2532;52.480;13.354;2022-12-07T10:38:51;6.63;;;4.93;;
5026;SDS011;2532;52.480;13.354;2022-12-07T10:41:19;7.30;;;5.37;;
5026;SDS011;2532;52.480;13.354;2022-12-07T10:43:50;12.90;;;6.33;;
5026;SDS011;2532;52.480;13.354;2022-12-07T10:46:22;7.33;;;5.33;;
5026;SDS011;2532;52.480;13.354;2022-12-07T10:52:14;5.37;;;4.23;;
5026;SDS011;2532;52.480;13.354;2022-12-07T10:54:55;4.50;;;4.10;;
5026;SDS011;2532;52.480;13.354;2022-12-07T10:57:37;5.20;;;4.70;;
5026;SDS011;2532;52.480;13.354;2022-12-07T11:00:15;8.50;;;5.30;;
5026;SDS011;2532;52.480;13.354;2022-12-07T11:02:50;6.60;;;4.30;;
5026;SDS011;2532;52.480;13.354;2022-12-07T11:05:37;8.10;;;4.27;;
5026;SDS011;2532;52.480;13.354;2022-12-07T11:08:13;8.07;;;4.57;;
5026;SDS011;2532;52.480;13.354;2022-12-07T11:10:52;9.93;;;5.17;;
5026;SDS011;2532;52.480;13.354;2022-12-07T11:13:25;6.90;;;5.40;;
5026;SDS011;2532;52.480;13.354;2022-12-07T11:16:03;17.23;;;5.60;;
5026;SDS011;2532;52.480;13.354;2022-12-07T11:18:43;5.00;;;4.13;;
5026;SDS011;2532;52.480;13.354;2022-12-07T11:21:20;6.57;;;4.77;;
5026;SDS011;2532;52.480;13.354;2022-12-07T11:23:55;7.83;;;6.17;;
5026;SDS011;2532;52.480;13.354;2022-12-07T11:26:36;10.23;;;5.63;;
5026;SDS011;2532;52.480;13.354;2022-12-07T11:29:16;9.43;;;4.97;;
5026;SDS011;2532;52.480;13.354;2022-12-07T11:31:57;10.80;;;6.30;;
5026;SDS011;2532;52.480;13.354;2022-12-07T11:34:34;8.80;;;5.60;;
5026;SDS011;2532;52.480;13.354;2022-12-07T11:37:07;10.87;;;7.03;;
5026;SDS011;2532;52.480;13.354;2022-12-07T11:39:41;8.70;;;5.80;;
5026;SDS011;2532;52.480;13.354;2022-12-07T11:42:13;7.60;;;5.57;;
5026;SDS011;2532;52.480;13.354;2022-12-07T11:44:48;9.70;;;5.80;;
5026;SDS011;2532;52.480;13.354;2022-12-07T11:47:20;5.40;;;4.57;;
5026;SDS011;2532;52.480;13.354;2022-12-07T11:49:54;8.60;;;5.27;;
5026;SDS011;2532;52.480;13.354;2022-12-07T11:52:25;5.70;;;4.77;;
5026;SDS011;2532;52.480;13.354;2022-12-07T11:54:58;9.83;;;5.20;;
5026;SDS011;2532;52.480;13.354;2022-12-07T11:57:39;8.97;;;5.73;;
5026;SDS011;2532;52.480;13.354;2022-12-07T12:00:12;10.13;;;6.03;;
5026;SDS011;2532;52.480;13.354;2022-12-07T12:02:42;6.83;;;5.03;;
5026;SDS011;2532;52.480;13.354;2022-12-07T12:05:16;8.13;;;5.00;;
5026;SDS011;2532;52.480;13.354;2022-12-07T12:07:46;7.03;;;4.97;;
5026;SDS011;2532;52.480;13.354;2022-12-07T12:10:18;10.27;;;5.83;;
5026;SDS011;2532;52.480;13.354;2022-12-07T12:13:04;8.00;;;5.57;;
5026;SDS011;2532;52.480;13.354;2022-12-07T12:15:51;10.43;;;4.07;;
5026;SDS011;2532;52.480;13.354;2022-12-07T12:18:43;8.40;;;4.73;;
5026;SDS011;2532;52.480;13.354;2022-12-07T12:21:31;11.17;;;6.10;;
5026;SDS011;2532;52.480;13.354;2022-12-07T12:23:59;9.87;;;5.70;;
5026;SDS011;2532;52.480;13.354;2022-12-07T12:26:31;5.70;;;4.20;;
5026;SDS011;2532;52.480;13.354;2022-12-07T12:29:01;10.97;;;4.60;;
5026;SDS011;2532;52.480;13.354;2022-12-07T12:31:32;9.77;;;4.07;;
5026;SDS011;2532;52.480;13.354;2022-12-07T12:34:02;9.30;;;5.17;;
5026;SDS011;2532;52.480;13.354;2022-12-07T12:36:50;9.03;;;4.73;;
5026;SDS011;2532;52.480;13.354;2022-12-07T12:39:20;8.83;;;4.50;;
5026;SDS011;2532;52.480;13.354;2022-12-07T12:41:51;10.00;;;5.40;;
5026;SDS011;2532;52.480;13.354;2022-12-07T12:44:40;9.43;;;4.13;;
5026;SDS011;2532;52.480;13.354;2022-12-07T12:50:27;7.87;;;4.43;;
5026;SDS011;2532;52.480;13.354;2022-12-07T12:53:03;11.90;;;4.43;;
5026;SDS011;2532;52.480;13.354;2022-12-07T13:01:51;6.50;;;4.20;;
5026;SDS011;2532;52.480;13.354;2022-12-07T13:04:23;15.93;;;4.20;;
5026;SDS011;2532;52.480;13.354;2022-12-07T13:06:56;12.97;;;5.73;;
5026;SDS011;2532;52.480;13.354;2022-12-07T13:09:24;18.43;;;5.50;;
5026;SDS011;2532;52.480;13.354;2022-12-07T13:12:01;6.67;;;4.50;;
5026;SDS011;2532;52.480;13.354;2022-12-07T13:14:51;9.93;;;4.70;;
5026;SDS011;2532;52.480;13.354;2022-12-07T13:23:16;11.43;;;4.40;;
5026;SDS011;2532;52.480;13.354;2022-12-07T13:25:49;8.33;;;5.17;;
5026;SDS011;2532;52.480;13.354;2022-12-07T13:28:22;8.47;;;4.93;;
5026;SDS011;2532;52.480;13.354;2022-12-07T13:30:57;12.60;;;4.13;;
5026;SDS011;2532;52.480;13.354;2022-12-07T13:33:32;7.27;;;5.07;;
5026;SDS011;2532;52.480;13.354;2022-12-07T13:36:01;11.50;;;5.17;;
5026;SDS011;2532;52.480;13.354;2022-12-07T13:38:29;8.10;;;4.30;;
5026;SDS011;2532;52.480;13.354;2022-12-07T13:41:11;6.73;;;4.27;;
5026;SDS011;2532;52.480;13.354;2022-12-07T13:43:45;6.30;;;4.20;;
5026;SDS011;2532;52.480;13.354;2022-12-07T13:46:16;7.67;;;5.13;;
5026;SDS011;2532;52.480;13.354;2022-12-07T13:48:48;12.00;;;4.53;;
5026;SDS011;2532;52.480;13.354;2022-12-07T13:51:17;10.37;;;4.87;;
5026;SDS011;2532;52.480;13.354;2022-12-07T13:53:46;7.33;;;4.07;;
5026;SDS011;2532;52.480;13.354;2022-12-07T13:56:14;8.57;;;4.30;;
5026;SDS011;2532;52.480;13.354;2022-12-07T13:58:42;10.33;;;5.07;;
5026;SDS011;2532;52.480;13.354;2022-12-07T14:01:09;7.20;;;4.63;;
5026;SDS011;2532;52.480;13.354;2022-12-07T14:03:38;6.67;;;4.23;;
5026;SDS011;2532;52.480;13.354;2022-12-07T14:06:18;5.77;;;4.10;;
5026;SDS011;2532;52.480;13.354;2022-12-07T14:08:50;8.37;;;4.83;;
5026;SDS011;2532;52.480;13.354;2022-12-07T14:11:31;8.40;;;4.40;;
5026;SDS011;2532;52.480;13.354;2022-12-07T14:13:59;8.40;;;4.20;;
5026;SDS011;2532;52.480;13.354;2022-12-07T14:16:28;9.53;;;4.67;;
5026;SDS011;2532;52.480;13.354;2022-12-07T14:19:00;8.20;;;4.40;;
5026;SDS011;2532;52.480;13.354;2022-12-07T14:21:32;7.27;;;4.70;;
5026;SDS011;2532;52.480;13.354;2022-12-07T14:24:08;6.47;;;4.40;;
5026;SDS011;2532;52.480;13.354;2022-12-07T14:26:37;11.03;;;5.40;;
5026;SDS011;2532;52.480;13.354;2022-12-07T14:32:01;8.70;;;5.10;;
5026;SDS011;2532;52.480;13.354;2022-12-07T14:34:54;13.00;;;5.20;;
5026;SDS011;2532;52.480;13.354;2022-12-07T14:37:24;9.40;;;4.30;;
5026;SDS011;2532;52.480;13.354;2022-12-07T14:39:53;10.47;;;5.80;;
5026;SDS011;2532;52.480;13.354;2022-12-07T14:42:20;9.20;;;4.23;;
5026;SDS011;2532;52.480;13.354;2022-12-07T14:44:50;10.63;;;4.40;;
5026;SDS011;2532;52.480;13.354;2022-12-07T14:47:17;6.83;;;4.87;;
5026;SDS011;2532;52.480;13.354;2022-12-07T14:49:44;6.70;;;3.83;;
5026;SDS011;2532;52.480;13.354;2022-12-07T14:52:12;8.57;;;3.93;;
5026;SDS011;2532;52.480;13.354;2022-12-07T14:54:43;14.93;;;6.20;;
5026;SDS011;2532;52.480;13.354;2022-12-07T14:57:10;7.47;;;4.20;;
5026;SDS011;2532;52.480;13.354;2022-12-07T14:59:37;6.90;;;4.50;;
5026;SDS011;2532;52.480;13.354;2022-12-07T15:02:05;13.20;;;4.13;;
5026;SDS011;2532;52.480;13.354;2022-12-07T15:04:32;9.60;;;4.10;;
5026;SDS011;2532;52.480;13.354;2022-12-07T15:07:00;12.73;;;4.63;;
5026;SDS011;2532;52.480;13.354;2022-12-07T15:09:29;6.10;;;3.93;;
5026;SDS011;2532;52.480;13.354;2022-12-07T15:11:58;9.93;;;4.53;;
5026;SDS011;2532;52.480;13.354;2022-12-07T15:14:25;8.03;;;4.60;;
5026;SDS011;2532;52.480;13.354;2022-12-07T15:16:52;7.73;;;4.30;;
5026;SDS011;2532;52.480;13.354;2022-12-07T15:19:19;9.63;;;4.00;;
5026;SDS011;2532;52.480;13.354;2022-12-07T15:21:51;8.27;;;5.10;;
5026;SDS011;2532;52.480;13.354;2022-12-07T15:24:18;8.27;;;3.97;;
5026;SDS011;2532;52.480;13.354;2022-12-07T15:26:46;7.63;;;4.57;;
5026;SDS011;2532;52.480;13.354;2022-12-07T15:29:14;12.33;;;5.13;;
5026;SDS011;2532;52.480;13.354;2022-12-07T15:31:42;6.93;;;5.40;;
5026;SDS011;2532;52.480;13.354;2022-12-07T15:34:09;8.13;;;4.03;;